createdAt,value
2023-05-21T00:02:11.803Z,10.59
2023-05-21T00:04:40.541Z,10.52
2023-05-21T00:07:08.364Z,10.46
2023-05-21T00:09:36.267Z,10.45
2023-05-21T00:12:02.703Z,10.40
2023-05-21T00:14:29.079Z,10.41
2023-05-21T00:16:55.738Z,10.35
2023-05-21T00:19:22.182Z,10.34
2023-05-21T00:21:48.536Z,10.29
2023-05-21T00:24:15.060Z,10.30
2023-05-21T00:26:41.863Z,10.28
2023-05-21T00:29:08.229Z,10.21
2023-05-21T00:31:34.555Z,10.25
2023-05-21T00:34:00.940Z,10.19
2023-05-21T00:36:27.269Z,10.12
2023-05-21T00:38:53.682Z,10.11
2023-05-21T00:41:22.854Z,10.10
2023-05-21T00:43:49.184Z,10.11
2023-05-21T00:46:19.475Z,10.05
2023-05-21T00:48:46.645Z,10.07
2023-05-21T00:51:18.298Z,10.02
2023-05-21T00:53:47.937Z,9.99
2023-05-21T00:56:14.343Z,9.98
2023-05-21T00:58:41.397Z,9.88
2023-05-21T01:01:13.466Z,9.86
2023-05-21T01:03:40.858Z,9.85
2023-05-21T01:06:09.646Z,9.89
2023-05-21T01:08:37.532Z,9.90
2023-05-21T01:11:06.029Z,9.98
2023-05-21T01:13:34.639Z,9.94
2023-05-21T01:16:02.035Z,9.98
2023-05-21T01:18:29.702Z,10.03
2023-05-21T01:20:56.082Z,10.01
2023-05-21T01:23:22.714Z,10.04
2023-05-21T01:25:49.048Z,10.01
2023-05-21T01:28:15.422Z,10.06
2023-05-21T01:30:43.018Z,10.03
2023-05-21T01:33:22.376Z,10.06
2023-05-21T01:36:09.300Z,10.09
2023-05-21T01:38:48.948Z,10.01
2023-05-21T01:41:18.386Z,10.04
2023-05-21T01:43:47.250Z,10.06
2023-05-21T01:46:23.079Z,10.08
2023-05-21T01:48:52.616Z,10.07
2023-05-21T01:51:19.281Z,9.99
2023-05-21T01:53:45.637Z,10.09
2023-05-21T01:56:12.533Z,10.06
2023-05-21T01:58:38.844Z,10.03
2023-05-21T02:01:05.392Z,9.89
2023-05-21T02:03:31.991Z,9.94
2023-05-21T02:05:58.560Z,9.95
2023-05-21T02:08:25.490Z,9.98
2023-05-21T02:10:51.842Z,9.93
2023-05-21T02:13:21.180Z,9.90
2023-05-21T02:15:48.774Z,9.90
2023-05-21T02:18:16.546Z,9.94
2023-05-21T02:20:43.486Z,9.94
2023-05-21T02:23:10.015Z,9.82
2023-05-21T02:25:36.510Z,9.87
2023-05-21T02:28:03.396Z,9.96
2023-05-21T02:30:29.719Z,9.94
2023-05-21T02:32:58.714Z,9.86
2023-05-21T02:35:25.137Z,9.79
2023-05-21T02:37:51.511Z,9.86
2023-05-21T02:40:17.923Z,9.95
2023-05-21T02:42:44.371Z,9.96
2023-05-21T02:45:11.934Z,9.91
2023-05-21T02:47:38.943Z,9.82
2023-05-21T02:50:06.987Z,9.80
2023-05-21T02:52:33.390Z,9.80
2023-05-21T02:54:59.785Z,9.74
2023-05-21T02:57:26.192Z,9.78
2023-05-21T02:59:52.618Z,9.79
2023-05-21T03:02:19.129Z,9.80
2023-05-21T03:04:48.814Z,9.81
2023-05-21T03:07:17.968Z,9.84
2023-05-21T03:09:44.584Z,9.76
2023-05-21T03:12:11.262Z,9.85
2023-05-21T03:14:38.370Z,9.82
2023-05-21T03:17:05.966Z,9.84
2023-05-21T03:19:35.740Z,9.75
2023-05-21T03:22:03.420Z,9.72
2023-05-21T03:24:33.061Z,9.77
2023-05-21T03:27:01.367Z,9.75
2023-05-21T03:29:28.276Z,9.71
2023-05-21T03:31:55.726Z,9.69
2023-05-21T03:34:22.268Z,9.65
2023-05-21T03:36:49.053Z,9.69
2023-05-21T03:39:15.578Z,9.70
2023-05-21T03:41:42.011Z,9.72
2023-05-21T03:44:09.014Z,9.74
2023-05-21T03:46:35.775Z,9.78
2023-05-21T03:49:02.390Z,9.78
2023-05-21T03:51:30.332Z,9.85
2023-05-21T03:53:58.664Z,9.78
2023-05-21T03:56:25.907Z,9.82
2023-05-21T03:58:52.682Z,9.85
2023-05-21T04:01:19.520Z,9.84
2023-05-21T04:03:46.095Z,9.81
2023-05-21T04:06:12.612Z,9.90
2023-05-21T04:08:39.540Z,9.91
2023-05-21T04:11:05.917Z,10.07
2023-05-21T04:13:32.262Z,10.05
2023-05-21T04:15:58.762Z,10.20
2023-05-21T04:18:25.913Z,10.20
2023-05-21T04:20:53.619Z,10.18
2023-05-21T04:23:20.117Z,10.17
2023-05-21T04:25:50.398Z,10.17
2023-05-21T04:28:19.979Z,10.26
2023-05-21T04:30:49.808Z,10.35
2023-05-21T04:33:20.083Z,10.43
2023-05-21T04:35:49.762Z,10.43
2023-05-21T04:38:19.428Z,10.48
2023-05-21T04:40:50.754Z,10.60
2023-05-21T04:43:17.229Z,10.64
2023-05-21T04:45:43.888Z,10.86
2023-05-21T04:48:10.253Z,10.84
2023-05-21T04:50:36.655Z,10.94
2023-05-21T04:53:03.384Z,11.12
2023-05-21T04:55:29.778Z,11.17
2023-05-21T04:57:56.273Z,11.14
2023-05-21T05:00:22.700Z,11.15
2023-05-21T05:02:49.174Z,11.35
2023-05-21T05:05:15.818Z,11.41
2023-05-21T05:07:42.200Z,11.46
2023-05-21T05:10:08.679Z,11.51
2023-05-21T05:12:35.085Z,11.54
2023-05-21T05:15:01.452Z,11.61
2023-05-21T05:17:27.844Z,11.66
2023-05-21T05:19:54.187Z,11.68
2023-05-21T05:22:20.528Z,11.88
2023-05-21T05:24:46.858Z,12.01
2023-05-21T05:27:13.193Z,12.09
2023-05-21T05:29:39.557Z,12.21
2023-05-21T05:32:06.483Z,12.39
2023-05-21T05:34:32.773Z,12.43
2023-05-21T05:36:59.155Z,12.51
2023-05-21T05:39:25.573Z,12.67
2023-05-21T05:41:51.924Z,12.88
2023-05-21T05:44:18.258Z,13.08
2023-05-21T05:46:44.686Z,13.11
2023-05-21T05:49:11.108Z,13.06
2023-05-21T05:51:37.623Z,12.99
2023-05-21T05:54:04.043Z,13.08
2023-05-21T05:56:30.434Z,13.12
2023-05-21T05:58:56.780Z,13.35
2023-05-21T06:01:24.558Z,13.43
2023-05-21T06:03:51.069Z,13.51
2023-05-21T06:06:17.875Z,13.52
2023-05-21T06:08:44.717Z,13.58
2023-05-21T06:11:11.312Z,13.78
2023-05-21T06:13:37.709Z,13.89
2023-05-21T06:16:04.442Z,14.07
2023-05-21T06:18:30.897Z,14.25
2023-05-21T06:20:57.708Z,14.38
2023-05-21T06:23:24.067Z,14.57
2023-05-21T06:25:50.447Z,14.67
2023-05-21T06:28:17.726Z,14.57
2023-05-21T06:30:44.201Z,14.79
2023-05-21T06:33:11.497Z,14.98
2023-05-21T06:35:39.743Z,14.97
2023-05-21T06:38:06.191Z,15.08
2023-05-21T06:40:32.538Z,15.14
2023-05-21T06:42:59.739Z,15.32
2023-05-21T06:45:26.207Z,15.34
2023-05-21T06:47:52.598Z,15.25
2023-05-21T06:50:20.049Z,15.32
2023-05-21T06:52:46.357Z,15.49
2023-05-21T06:55:12.933Z,15.44
2023-05-21T06:57:39.280Z,15.56
2023-05-21T07:00:06.637Z,15.46
2023-05-21T07:02:33.262Z,15.65
2023-05-21T07:04:59.683Z,15.81
2023-05-21T07:07:27.259Z,15.65
2023-05-21T07:09:53.583Z,15.75
2023-05-21T07:12:19.954Z,15.63
2023-05-21T07:14:46.296Z,15.53
2023-05-21T07:17:12.626Z,15.71
2023-05-21T07:19:39.072Z,15.69
2023-05-21T07:22:06.003Z,15.69
2023-05-21T07:24:32.337Z,15.70
2023-05-21T07:26:58.678Z,15.82
2023-05-21T07:29:25.124Z,15.84
2023-05-21T07:31:51.464Z,15.88
2023-05-21T07:34:17.806Z,16.01
2023-05-21T07:36:44.203Z,16.20
2023-05-21T07:39:10.892Z,16.15
2023-05-21T07:41:37.296Z,16.23
2023-05-21T07:44:03.734Z,16.27
2023-05-21T07:46:30.353Z,16.19
2023-05-21T07:48:56.831Z,16.26
2023-05-21T07:51:23.383Z,16.32
2023-05-21T07:53:49.748Z,16.46
2023-05-21T07:56:16.116Z,16.49
2023-05-21T07:58:45.710Z,16.65
2023-05-21T08:01:12.528Z,16.83
2023-05-21T08:03:39.356Z,17.00
2023-05-21T08:06:05.873Z,17.05
2023-05-21T08:08:32.565Z,16.98
2023-05-21T08:10:59.089Z,17.10
2023-05-21T08:13:25.729Z,17.38
2023-05-21T08:15:53.539Z,17.36
2023-05-21T08:18:19.945Z,17.50
2023-05-21T08:20:46.393Z,17.59
2023-05-21T08:23:12.835Z,17.73
2023-05-21T08:25:39.239Z,17.86
2023-05-21T08:28:07.062Z,17.72
2023-05-21T08:30:33.911Z,17.68
2023-05-21T08:33:01.125Z,17.86
2023-05-21T08:35:27.955Z,17.92
2023-05-21T08:37:54.336Z,17.98
2023-05-21T08:40:20.883Z,18.06
2023-05-21T08:42:48.941Z,18.31
2023-05-21T08:45:20.631Z,18.45
2023-05-21T08:47:50.471Z,18.61
2023-05-21T08:50:20.551Z,18.48
2023-05-21T08:52:47.047Z,18.64
2023-05-21T08:55:13.937Z,18.60
2023-05-21T08:57:43.559Z,18.30
2023-05-21T09:00:11.697Z,18.43
2023-05-21T09:02:40.781Z,18.25
2023-05-21T09:05:09.407Z,18.62
2023-05-21T09:07:55.677Z,18.68
2023-05-21T09:10:29.329Z,18.43
2023-05-21T09:12:55.882Z,18.55
2023-05-21T09:15:22.589Z,18.77
2023-05-21T09:17:49.094Z,18.73
2023-05-21T09:20:16.477Z,18.55
2023-05-21T09:22:48.170Z,18.51
2023-05-21T09:25:21.461Z,18.46
2023-05-21T09:27:47.896Z,18.52
2023-05-21T09:30:16.177Z,18.60
2023-05-21T09:32:43.662Z,18.53
2023-05-21T09:35:14.299Z,18.65
2023-05-21T09:37:45.004Z,18.66
2023-05-21T09:40:15.478Z,18.78
2023-05-21T09:42:45.344Z,18.59
2023-05-21T09:45:12.272Z,18.61
2023-05-21T09:47:43.648Z,18.68
2023-05-21T09:50:20.790Z,18.48
2023-05-21T09:52:50.063Z,18.22
2023-05-21T09:55:16.983Z,18.34
2023-05-21T09:57:44.668Z,18.56
2023-05-21T10:00:19.364Z,18.76
2023-05-21T10:02:47.924Z,18.85
2023-05-21T10:05:16.461Z,18.81
2023-05-21T10:07:56.126Z,18.99
2023-05-21T10:10:23.655Z,19.21
2023-05-21T10:13:14.375Z,19.50
2023-05-21T10:15:55.580Z,19.66
2023-05-21T10:18:23.497Z,19.63
2023-05-21T10:20:51.212Z,19.75
2023-05-21T10:23:18.909Z,19.78
2023-05-21T10:25:46.129Z,20.05
2023-05-21T10:28:16.872Z,20.20
2023-05-21T10:30:44.506Z,19.91
2023-05-21T10:33:16.818Z,19.93
2023-05-21T10:35:46.596Z,19.89
2023-05-21T10:38:13.575Z,19.88
2023-05-21T10:40:40.182Z,20.00
2023-05-21T10:43:34.407Z,20.33
2023-05-21T10:46:03.706Z,20.29
2023-05-21T10:48:50.830Z,20.42
2023-05-21T10:51:38.313Z,20.48
2023-05-21T10:54:19.631Z,20.32
2023-05-21T10:56:54.947Z,20.13
2023-05-21T10:59:24.195Z,20.33
2023-05-21T11:01:56.837Z,20.61
2023-05-21T11:04:26.725Z,20.80
2023-05-21T11:06:53.352Z,20.83
2023-05-21T11:09:19.978Z,21.09
2023-05-21T11:11:54.221Z,20.92
2023-05-21T11:14:27.654Z,20.82
2023-05-21T11:16:55.140Z,21.00
2023-05-21T11:19:21.638Z,21.17
2023-05-21T11:21:51.626Z,21.13
2023-05-21T11:24:21.199Z,20.93
2023-05-21T11:26:47.529Z,20.76
2023-05-21T11:29:14.787Z,20.57
2023-05-21T11:31:48.763Z,20.82
2023-05-21T11:34:19.412Z,21.04
2023-05-21T11:36:48.321Z,21.24
2023-05-21T11:39:17.740Z,21.19
2023-05-21T11:42:04.314Z,21.39
2023-05-21T11:44:41.223Z,21.69
2023-05-21T11:47:12.594Z,21.60
2023-05-21T11:49:39.333Z,21.77
2023-05-21T11:52:07.787Z,21.95
2023-05-21T11:54:40.191Z,22.30
2023-05-21T11:57:07.890Z,22.06
2023-05-21T11:59:35.378Z,22.25
2023-05-21T12:02:03.093Z,22.22
2023-05-21T12:04:30.627Z,22.42
2023-05-21T12:06:58.445Z,22.73
2023-05-21T12:09:25.009Z,22.98
2023-05-21T12:11:51.604Z,22.73
2023-05-21T12:14:18.088Z,22.85
2023-05-21T12:16:44.628Z,22.60
2023-05-21T12:19:11.071Z,22.60
2023-05-21T12:21:38.084Z,22.70
2023-05-21T12:24:04.611Z,22.62
2023-05-21T12:26:33.230Z,22.48
2023-05-21T12:28:59.760Z,22.60
2023-05-21T12:31:27.459Z,22.77
2023-05-21T12:33:53.885Z,22.72
2023-05-21T12:36:27.673Z,22.64
2023-05-21T12:38:54.616Z,22.33
2023-05-21T12:41:22.017Z,22.35
2023-05-21T12:43:48.840Z,22.45
2023-05-21T12:46:17.577Z,22.18
2023-05-21T12:48:54.447Z,22.07
2023-05-21T12:51:20.854Z,22.07
2023-05-21T12:53:47.640Z,22.22
2023-05-21T12:56:15.673Z,22.07
2023-05-21T12:58:42.834Z,22.38
2023-05-21T13:01:10.837Z,22.38
2023-05-21T13:03:38.512Z,22.23
2023-05-21T13:06:09.033Z,22.47
2023-05-21T13:08:35.937Z,22.46
2023-05-21T13:11:03.188Z,22.34
2023-05-21T13:13:30.331Z,22.35
2023-05-21T13:15:57.000Z,22.56
2023-05-21T13:18:23.491Z,22.56
2023-05-21T13:20:51.559Z,22.66
2023-05-21T13:23:18.002Z,22.80
2023-05-21T13:25:44.358Z,22.65
2023-05-21T13:28:13.080Z,22.44
2023-05-21T13:30:39.788Z,22.42
2023-05-21T13:33:06.522Z,22.42
2023-05-21T13:35:36.785Z,22.45
2023-05-21T13:38:03.275Z,22.50
2023-05-21T13:40:29.613Z,22.50
2023-05-21T13:42:56.108Z,22.50
2023-05-21T13:45:25.335Z,22.56
2023-05-21T13:47:51.714Z,22.41
2023-05-21T13:50:18.200Z,22.50
2023-05-21T13:52:45.870Z,22.33
2023-05-21T13:55:12.441Z,22.43
2023-05-21T13:57:40.372Z,22.06
2023-05-21T14:00:09.220Z,22.09
2023-05-21T14:02:35.833Z,22.06
2023-05-21T14:05:02.186Z,22.26
2023-05-21T14:07:28.580Z,22.19
2023-05-21T14:09:55.170Z,22.32
2023-05-21T14:12:22.161Z,22.38
2023-05-21T14:14:49.693Z,22.37
2023-05-21T14:17:16.126Z,22.57
2023-05-21T14:19:42.510Z,22.66
2023-05-21T14:22:08.905Z,22.60
2023-05-21T14:24:35.319Z,22.69
2023-05-21T14:27:01.626Z,22.63
2023-05-21T14:29:28.105Z,22.55
2023-05-21T14:31:54.553Z,22.71
2023-05-21T14:34:20.948Z,22.62
2023-05-21T14:36:47.334Z,22.51
2023-05-21T14:39:13.823Z,22.51
2023-05-21T14:41:40.384Z,22.44
2023-05-21T14:44:06.897Z,22.44
2023-05-21T14:46:33.574Z,22.36
2023-05-21T14:49:00.462Z,22.45
2023-05-21T14:51:26.884Z,22.61
2023-05-21T14:53:53.290Z,22.51
2023-05-21T14:56:21.886Z,22.58
2023-05-21T14:58:48.384Z,22.68
2023-05-21T15:01:14.880Z,22.79
2023-05-21T15:03:41.426Z,22.60
2023-05-21T15:06:08.030Z,22.37
2023-05-21T15:08:34.537Z,22.48
2023-05-21T15:11:00.897Z,22.63
2023-05-21T15:13:27.278Z,22.49
2023-05-21T15:15:53.624Z,22.45
2023-05-21T15:18:20.077Z,22.56
2023-05-21T15:20:46.473Z,22.43
2023-05-21T15:23:17.168Z,22.39
2023-05-21T15:25:44.972Z,22.51
2023-05-21T15:28:14.072Z,22.51
2023-05-21T15:30:40.478Z,22.57
2023-05-21T15:33:07.064Z,22.57
2023-05-21T15:35:35.491Z,22.46
2023-05-21T15:38:02.256Z,22.39
2023-05-21T15:40:28.590Z,22.50
2023-05-21T15:42:54.988Z,22.47
2023-05-21T15:45:21.362Z,22.55
2023-05-21T15:48:03.155Z,22.54
2023-05-21T15:50:29.502Z,22.33
2023-05-21T15:52:56.027Z,22.47
2023-05-21T15:55:22.464Z,22.57
2023-05-21T15:57:48.823Z,22.48
2023-05-21T16:00:15.418Z,22.42
2023-05-21T16:02:42.019Z,22.28
2023-05-21T16:05:09.032Z,22.36
2023-05-21T16:07:37.786Z,22.37
2023-05-21T16:10:04.955Z,22.30
2023-05-21T16:12:31.354Z,22.22
2023-05-21T16:14:57.798Z,22.18
2023-05-21T16:17:24.234Z,22.35
2023-05-21T16:19:50.944Z,22.17
2023-05-21T16:22:17.375Z,22.15
2023-05-21T16:24:43.720Z,22.13
2023-05-21T16:27:10.078Z,21.98
2023-05-21T16:29:38.699Z,21.92
2023-05-21T16:32:06.767Z,21.96
2023-05-21T16:34:34.309Z,22.11
2023-05-21T16:37:00.700Z,22.03
2023-05-21T16:39:27.049Z,21.96
2023-05-21T16:41:55.077Z,21.91
2023-05-21T16:44:21.410Z,21.87
2023-05-21T16:46:47.773Z,21.87
2023-05-21T16:49:14.124Z,21.91
2023-05-21T16:51:40.524Z,21.93
2023-05-21T16:54:06.939Z,21.74
2023-05-21T16:56:33.296Z,21.77
2023-05-21T16:58:59.728Z,21.91
2023-05-21T17:01:26.344Z,21.88
2023-05-21T17:03:53.329Z,21.88
2023-05-21T17:06:19.947Z,21.94
2023-05-21T17:08:46.357Z,21.85
2023-05-21T17:11:13.069Z,21.63
2023-05-21T17:13:39.393Z,21.64
2023-05-21T17:16:06.156Z,21.54
2023-05-21T17:18:32.595Z,21.43
2023-05-21T17:20:59.053Z,21.45
2023-05-21T17:23:25.492Z,21.44
2023-05-21T17:25:52.546Z,21.43
2023-05-21T17:28:19.310Z,21.44
2023-05-21T17:30:46.828Z,21.39
2023-05-21T17:33:14.656Z,21.33
2023-05-21T17:35:41.440Z,21.17
2023-05-21T17:38:07.811Z,21.11
2023-05-21T17:40:34.261Z,20.94
2023-05-21T17:43:01.679Z,21.00
2023-05-21T17:45:28.025Z,20.96
2023-05-21T17:47:55.259Z,20.93
2023-05-21T17:50:22.509Z,20.80
2023-05-21T17:52:49.088Z,20.71
2023-05-21T17:55:15.518Z,20.67
2023-05-21T17:57:41.910Z,20.67
2023-05-21T18:00:08.966Z,20.58
2023-05-21T18:02:35.391Z,20.57
2023-05-21T18:05:01.811Z,20.56
2023-05-21T18:07:28.230Z,20.57
2023-05-21T18:09:54.663Z,20.51
2023-05-21T18:12:21.311Z,20.49
2023-05-21T18:14:47.726Z,20.53
2023-05-21T18:17:14.160Z,20.44
2023-05-21T18:19:40.654Z,20.44
2023-05-21T18:22:07.686Z,20.45
2023-05-21T18:24:34.339Z,20.54
2023-05-21T18:27:00.812Z,20.48
2023-05-21T18:29:27.154Z,20.54
2023-05-21T18:31:53.745Z,20.53
2023-05-21T18:34:20.340Z,20.45
2023-05-21T18:36:48.019Z,20.42
2023-05-21T18:39:14.376Z,20.42
2023-05-21T18:41:41.067Z,20.43
2023-05-21T18:44:07.521Z,20.40
2023-05-21T18:46:34.105Z,20.23
2023-05-21T18:49:00.719Z,20.17
2023-05-21T18:51:27.235Z,20.10
2023-05-21T18:53:53.728Z,20.00
2023-05-21T18:56:22.030Z,19.99
2023-05-21T18:58:48.548Z,19.95
2023-05-21T19:01:15.109Z,19.82
2023-05-21T19:03:41.470Z,19.79
2023-05-21T19:06:08.491Z,19.76
2023-05-21T19:08:34.878Z,19.69
2023-05-21T19:11:01.264Z,19.69
2023-05-21T19:13:27.712Z,19.68
2023-05-21T19:15:54.101Z,19.48
2023-05-21T19:18:20.525Z,19.39
2023-05-21T19:20:46.888Z,19.42
2023-05-21T19:23:13.640Z,19.39
2023-05-21T19:25:40.025Z,19.33
2023-05-21T19:28:06.368Z,19.22
2023-05-21T19:30:34.907Z,19.23
2023-05-21T19:33:01.726Z,19.16
2023-05-21T19:35:28.239Z,19.17
2023-05-21T19:37:58.807Z,19.10
2023-05-21T19:40:25.682Z,19.15
2023-05-21T19:42:52.066Z,19.11
2023-05-21T19:45:21.111Z,18.98
2023-05-21T19:47:47.593Z,18.94
2023-05-21T19:50:13.991Z,18.97
2023-05-21T19:52:40.769Z,18.98
2023-05-21T19:55:10.189Z,18.94
2023-05-21T19:57:37.161Z,18.87
2023-05-21T20:00:05.069Z,18.93
2023-05-21T20:02:31.498Z,18.92
2023-05-21T20:04:58.904Z,18.97
2023-05-21T20:07:25.479Z,18.88
2023-05-21T20:09:52.367Z,18.84
2023-05-21T20:12:19.169Z,18.77
2023-05-21T20:14:47.308Z,18.88
2023-05-21T20:17:14.307Z,18.73
2023-05-21T20:19:40.942Z,18.65
2023-05-21T20:22:07.403Z,18.59
2023-05-21T20:24:33.824Z,18.53
2023-05-21T20:27:01.425Z,18.52
2023-05-21T20:29:28.637Z,18.44
2023-05-21T20:31:55.149Z,18.43
2023-05-21T20:34:21.626Z,18.41
2023-05-21T20:36:48.308Z,18.36
2023-05-21T20:39:15.519Z,18.33
2023-05-21T20:41:44.760Z,18.30
2023-05-21T20:44:11.744Z,18.31
2023-05-21T20:46:38.770Z,18.30
2023-05-21T20:49:05.775Z,18.24
2023-05-21T20:51:32.259Z,18.22
2023-05-21T20:53:58.958Z,18.20
2023-05-21T20:56:40.112Z,18.19
2023-05-21T20:59:10.444Z,18.17
2023-05-21T21:01:37.818Z,18.04
2023-05-21T21:04:04.755Z,18.02
2023-05-21T21:06:31.737Z,17.93
2023-05-21T21:08:58.205Z,17.89
2023-05-21T21:11:26.562Z,17.80
2023-05-21T21:13:52.989Z,17.76
2023-05-21T21:16:19.376Z,17.74
2023-05-21T21:18:46.860Z,17.72
2023-05-21T21:21:13.441Z,17.65
2023-05-21T21:23:39.789Z,17.67
2023-05-21T21:26:06.206Z,17.57
2023-05-21T21:28:32.544Z,17.46
2023-05-21T21:30:58.892Z,17.49
2023-05-21T21:33:26.590Z,17.51
2023-05-21T21:35:53.047Z,17.53
2023-05-21T21:38:19.489Z,17.50
2023-05-21T21:40:45.846Z,17.39
2023-05-21T21:43:12.204Z,17.27
2023-05-21T21:45:38.816Z,17.11
2023-05-21T21:48:05.684Z,17.04
2023-05-21T21:50:32.124Z,17.01
2023-05-21T21:52:59.748Z,17.03
2023-05-21T21:55:26.131Z,16.97
2023-05-21T21:57:52.468Z,16.86
2023-05-21T22:00:19.140Z,16.88
2023-05-21T22:02:48.295Z,16.79
2023-05-21T22:05:14.831Z,16.78
2023-05-21T22:07:42.619Z,16.70
2023-05-21T22:10:09.434Z,16.72
2023-05-21T22:12:35.862Z,16.75
2023-05-21T22:15:05.042Z,16.78
2023-05-21T22:17:32.599Z,16.75
2023-05-21T22:19:59.046Z,16.61
2023-05-21T22:22:25.929Z,16.51
2023-05-21T22:24:53.669Z,16.42
2023-05-21T22:27:20.553Z,16.36
2023-05-21T22:29:46.996Z,16.29
2023-05-21T22:32:13.595Z,16.24
2023-05-21T22:34:39.980Z,16.24
2023-05-21T22:37:06.372Z,16.15
2023-05-21T22:39:32.685Z,16.15
2023-05-21T22:41:59.471Z,16.05
2023-05-21T22:44:25.906Z,16.05
2023-05-21T22:46:52.366Z,16.04
2023-05-21T22:49:19.663Z,16.00
2023-05-21T22:51:46.207Z,16.11
2023-05-21T22:54:12.543Z,16.11
2023-05-21T22:56:38.920Z,16.15
2023-05-21T22:59:05.218Z,16.07
2023-05-21T23:01:31.856Z,15.96
2023-05-21T23:03:58.191Z,15.99
2023-05-21T23:06:24.568Z,15.97
2023-05-21T23:08:51.000Z,15.89
2023-05-21T23:11:17.417Z,15.81
2023-05-21T23:13:43.761Z,15.63
2023-05-21T23:16:10.172Z,15.67
2023-05-21T23:18:36.700Z,15.68
2023-05-21T23:21:03.148Z,15.74
2023-05-21T23:23:29.661Z,15.58
2023-05-21T23:25:57.465Z,15.68
2023-05-21T23:28:24.121Z,15.64
2023-05-21T23:30:51.499Z,15.53
2023-05-21T23:33:18.129Z,15.45
2023-05-21T23:35:44.460Z,15.47
2023-05-21T23:38:10.849Z,15.50
2023-05-21T23:40:37.380Z,15.45
2023-05-21T23:43:04.602Z,15.43
2023-05-21T23:45:31.456Z,15.49
2023-05-21T23:47:57.849Z,15.49
2023-05-21T23:50:24.664Z,15.45
2023-05-21T23:52:51.100Z,15.36
2023-05-21T23:55:17.593Z,15.24
2023-05-21T23:57:43.971Z,15.33
